sensor_id;sensor_type;location;lat;lon;timestamp;P1;durP1;ratioP1;P2;durP2;ratioP2
55186;SDS011;55457;52.002;5.464;2023-07-30T00:01:43;5.13;;;1.52;;
55186;SDS011;55457;52.002;5.464;2023-07-30T00:04:10;4.35;;;1.23;;
55186;SDS011;55457;52.002;5.464;2023-07-30T00:06:36;6.20;;;1.75;;
55186;SDS011;55457;52.002;5.464;2023-07-30T00:09:01;3.92;;;1.30;;
55186;SDS011;55457;52.002;5.464;2023-07-30T00:11:26;3.17;;;1.40;;
55186;SDS011;55457;52.002;5.464;2023-07-30T00:13:52;6.40;;;1.63;;
55186;SDS011;55457;52.002;5.464;2023-07-30T00:16:17;3.42;;;1.40;;
55186;SDS011;55457;52.002;5.464;2023-07-30T00:18:42;3.78;;;1.30;;
55186;SDS011;55457;52.002;5.464;2023-07-30T00:21:08;3.33;;;1.50;;
55186;SDS011;55457;52.002;5.464;2023-07-30T00:23:33;4.50;;;1.65;;
55186;SDS011;55457;52.002;5.464;2023-07-30T00:25:58;4.68;;;1.48;;
55186;SDS011;55457;52.002;5.464;2023-07-30T00:28:24;4.55;;;1.27;;
55186;SDS011;55457;52.002;5.464;2023-07-30T00:30:49;3.80;;;1.60;;
55186;SDS011;55457;52.002;5.464;2023-07-30T00:33:14;2.97;;;1.15;;
55186;SDS011;55457;52.002;5.464;2023-07-30T00:35:40;3.60;;;1.48;;
55186;SDS011;55457;52.002;5.464;2023-07-30T00:38:05;4.18;;;1.60;;
55186;SDS011;55457;52.002;5.464;2023-07-30T00:40:30;5.28;;;1.70;;
55186;SDS011;55457;52.002;5.464;2023-07-30T00:42:56;4.57;;;1.35;;
55186;SDS011;55457;52.002;5.464;2023-07-30T00:45:21;4.45;;;2.05;;
55186;SDS011;55457;52.002;5.464;2023-07-30T00:47:46;3.72;;;1.50;;
55186;SDS011;55457;52.002;5.464;2023-07-30T00:50:12;4.05;;;1.77;;
55186;SDS011;55457;52.002;5.464;2023-07-30T00:52:40;3.20;;;1.35;;
55186;SDS011;55457;52.002;5.464;2023-07-30T00:55:07;5.22;;;1.60;;
55186;SDS011;55457;52.002;5.464;2023-07-30T00:57:34;6.95;;;2.30;;
55186;SDS011;55457;52.002;5.464;2023-07-30T01:00:02;6.80;;;1.35;;
55186;SDS011;55457;52.002;5.464;2023-07-30T01:02:32;5.10;;;1.25;;
55186;SDS011;55457;52.002;5.464;2023-07-30T01:04:58;5.90;;;1.98;;
55186;SDS011;55457;52.002;5.464;2023-07-30T01:07:25;6.10;;;1.75;;
55186;SDS011;55457;52.002;5.464;2023-07-30T01:09:51;3.17;;;1.35;;
55186;SDS011;55457;52.002;5.464;2023-07-30T01:12:17;6.50;;;1.70;;
55186;SDS011;55457;52.002;5.464;2023-07-30T01:14:42;2.88;;;1.40;;
55186;SDS011;55457;52.002;5.464;2023-07-30T01:17:10;4.47;;;1.50;;
55186;SDS011;55457;52.002;5.464;2023-07-30T01:19:36;5.78;;;1.30;;
55186;SDS011;55457;52.002;5.464;2023-07-30T01:22:02;4.20;;;2.03;;
55186;SDS011;55457;52.002;5.464;2023-07-30T01:24:27;3.33;;;1.52;;
55186;SDS011;55457;52.002;5.464;2023-07-30T01:26:55;6.15;;;2.05;;
55186;SDS011;55457;52.002;5.464;2023-07-30T01:29:33;3.33;;;1.13;;
55186;SDS011;55457;52.002;5.464;2023-07-30T01:32:07;5.28;;;1.90;;
55186;SDS011;55457;52.002;5.464;2023-07-30T01:34:35;2.45;;;1.30;;
55186;SDS011;55457;52.002;5.464;2023-07-30T01:37:03;4.00;;;1.40;;
55186;SDS011;55457;52.002;5.464;2023-07-30T01:39:30;6.50;;;1.77;;
55186;SDS011;55457;52.002;5.464;2023-07-30T01:41:57;5.18;;;1.63;;
55186;SDS011;55457;52.002;5.464;2023-07-30T01:44:22;4.95;;;1.35;;
55186;SDS011;55457;52.002;5.464;2023-07-30T01:46:48;4.85;;;1.52;;
55186;SDS011;55457;52.002;5.464;2023-07-30T01:49:13;4.38;;;1.42;;
55186;SDS011;55457;52.002;5.464;2023-07-30T01:51:38;5.88;;;1.70;;
55186;SDS011;55457;52.002;5.464;2023-07-30T01:54:04;5.30;;;1.50;;
55186;SDS011;55457;52.002;5.464;2023-07-30T01:56:29;3.58;;;1.23;;
55186;SDS011;55457;52.002;5.464;2023-07-30T01:58:54;4.95;;;1.52;;
55186;SDS011;55457;52.002;5.464;2023-07-30T02:01:20;6.85;;;1.77;;
55186;SDS011;55457;52.002;5.464;2023-07-30T02:03:45;8.55;;;2.78;;
55186;SDS011;55457;52.002;5.464;2023-07-30T02:06:11;3.38;;;1.33;;
55186;SDS011;55457;52.002;5.464;2023-07-30T02:08:37;10.30;;;2.30;;
55186;SDS011;55457;52.002;5.464;2023-07-30T02:11:02;8.55;;;1.90;;
55186;SDS011;55457;52.002;5.464;2023-07-30T02:13:28;8.27;;;1.55;;
55186;SDS011;55457;52.002;5.464;2023-07-30T02:15:53;8.25;;;2.35;;
55186;SDS011;55457;52.002;5.464;2023-07-30T02:18:19;7.45;;;1.60;;
55186;SDS011;55457;52.002;5.464;2023-07-30T02:20:44;4.55;;;1.95;;
55186;SDS011;55457;52.002;5.464;2023-07-30T02:23:09;8.95;;;1.65;;
55186;SDS011;55457;52.002;5.464;2023-07-30T02:25:35;5.30;;;1.95;;
55186;SDS011;55457;52.002;5.464;2023-07-30T02:28:00;4.97;;;1.50;;
55186;SDS011;55457;52.002;5.464;2023-07-30T02:30:26;6.82;;;2.50;;
55186;SDS011;55457;52.002;5.464;2023-07-30T02:32:52;9.48;;;2.58;;
55186;SDS011;55457;52.002;5.464;2023-07-30T02:35:17;8.02;;;1.70;;
55186;SDS011;55457;52.002;5.464;2023-07-30T02:37:43;11.75;;;2.42;;
55186;SDS011;55457;52.002;5.464;2023-07-30T02:40:08;3.22;;;1.38;;
55186;SDS011;55457;52.002;5.464;2023-07-30T02:42:34;8.35;;;2.00;;
55186;SDS011;55457;52.002;5.464;2023-07-30T02:44:59;4.82;;;1.60;;
55186;SDS011;55457;52.002;5.464;2023-07-30T02:47:25;4.03;;;1.60;;
55186;SDS011;55457;52.002;5.464;2023-07-30T02:49:50;9.43;;;1.83;;
55186;SDS011;55457;52.002;5.464;2023-07-30T02:52:15;5.05;;;1.92;;
55186;SDS011;55457;52.002;5.464;2023-07-30T02:54:41;5.82;;;1.95;;
55186;SDS011;55457;52.002;5.464;2023-07-30T02:57:06;8.30;;;1.73;;
55186;SDS011;55457;52.002;5.464;2023-07-30T02:59:32;7.57;;;2.03;;
55186;SDS011;55457;52.002;5.464;2023-07-30T03:02:01;7.32;;;2.28;;
55186;SDS011;55457;52.002;5.464;2023-07-30T03:04:26;7.22;;;1.95;;
55186;SDS011;55457;52.002;5.464;2023-07-30T03:06:52;6.68;;;1.88;;
55186;SDS011;55457;52.002;5.464;2023-07-30T03:09:17;8.25;;;2.00;;
55186;SDS011;55457;52.002;5.464;2023-07-30T03:11:42;6.80;;;1.70;;
55186;SDS011;55457;52.002;5.464;2023-07-30T03:14:08;6.57;;;2.17;;
55186;SDS011;55457;52.002;5.464;2023-07-30T03:16:33;10.52;;;2.72;;
55186;SDS011;55457;52.002;5.464;2023-07-30T03:18:58;6.78;;;1.70;;
55186;SDS011;55457;52.002;5.464;2023-07-30T03:21:24;8.68;;;2.47;;
55186;SDS011;55457;52.002;5.464;2023-07-30T03:23:49;5.22;;;2.25;;
55186;SDS011;55457;52.002;5.464;2023-07-30T03:26:14;4.82;;;1.98;;
55186;SDS011;55457;52.002;5.464;2023-07-30T03:28:40;7.47;;;1.80;;
55186;SDS011;55457;52.002;5.464;2023-07-30T03:31:05;8.85;;;1.60;;
55186;SDS011;55457;52.002;5.464;2023-07-30T03:33:30;7.53;;;2.15;;
55186;SDS011;55457;52.002;5.464;2023-07-30T03:35:56;3.70;;;1.73;;
55186;SDS011;55457;52.002;5.464;2023-07-30T03:38:21;7.93;;;2.70;;
55186;SDS011;55457;52.002;5.464;2023-07-30T03:40:47;10.60;;;2.22;;
55186;SDS011;55457;52.002;5.464;2023-07-30T03:43:12;4.82;;;1.77;;
55186;SDS011;55457;52.002;5.464;2023-07-30T03:45:37;3.15;;;1.70;;
55186;SDS011;55457;52.002;5.464;2023-07-30T03:48:03;7.15;;;1.55;;
55186;SDS011;55457;52.002;5.464;2023-07-30T03:50:28;5.32;;;1.83;;
55186;SDS011;55457;52.002;5.464;2023-07-30T03:52:53;6.00;;;2.92;;
55186;SDS011;55457;52.002;5.464;2023-07-30T03:55:19;10.10;;;3.17;;
55186;SDS011;55457;52.002;5.464;2023-07-30T03:57:44;8.30;;;2.30;;
55186;SDS011;55457;52.002;5.464;2023-07-30T04:00:10;8.65;;;2.13;;
55186;SDS011;55457;52.002;5.464;2023-07-30T04:02:35;9.32;;;2.25;;
55186;SDS011;55457;52.002;5.464;2023-07-30T04:05:00;7.13;;;2.10;;
55186;SDS011;55457;52.002;5.464;2023-07-30T04:07:26;9.68;;;2.28;;
55186;SDS011;55457;52.002;5.464;2023-07-30T04:09:51;6.22;;;1.65;;
55186;SDS011;55457;52.002;5.464;2023-07-30T04:12:16;5.82;;;1.33;;
55186;SDS011;55457;52.002;5.464;2023-07-30T04:14:44;6.53;;;2.70;;
55186;SDS011;55457;52.002;5.464;2023-07-30T04:17:09;13.65;;;3.03;;
55186;SDS011;55457;52.002;5.464;2023-07-30T04:19:36;13.30;;;2.60;;
55186;SDS011;55457;52.002;5.464;2023-07-30T04:22:01;11.70;;;2.65;;
55186;SDS011;55457;52.002;5.464;2023-07-30T04:24:26;6.65;;;2.45;;
55186;SDS011;55457;52.002;5.464;2023-07-30T04:26:52;8.48;;;2.40;;
55186;SDS011;55457;52.002;5.464;2023-07-30T04:29:17;7.93;;;2.20;;
55186;SDS011;55457;52.002;5.464;2023-07-30T04:31:42;7.07;;;1.65;;
55186;SDS011;55457;52.002;5.464;2023-07-30T04:34:08;5.60;;;1.80;;
55186;SDS011;55457;52.002;5.464;2023-07-30T04:36:33;14.60;;;3.17;;
55186;SDS011;55457;52.002;5.464;2023-07-30T04:38:59;8.45;;;2.95;;
55186;SDS011;55457;52.002;5.464;2023-07-30T04:41:24;6.05;;;2.00;;
55186;SDS011;55457;52.002;5.464;2023-07-30T04:43:49;12.65;;;3.05;;
55186;SDS011;55457;52.002;5.464;2023-07-30T04:46:15;11.85;;;3.05;;
55186;SDS011;55457;52.002;5.464;2023-07-30T04:48:40;12.25;;;2.80;;
55186;SDS011;55457;52.002;5.464;2023-07-30T04:51:06;11.65;;;2.30;;
55186;SDS011;55457;52.002;5.464;2023-07-30T04:53:31;13.80;;;3.45;;
55186;SDS011;55457;52.002;5.464;2023-07-30T04:55:57;10.38;;;2.92;;
55186;SDS011;55457;52.002;5.464;2023-07-30T04:58:23;9.13;;;2.40;;
55186;SDS011;55457;52.002;5.464;2023-07-30T05:00:49;9.55;;;3.05;;
55186;SDS011;55457;52.002;5.464;2023-07-30T05:03:15;10.00;;;3.17;;
55186;SDS011;55457;52.002;5.464;2023-07-30T05:05:40;6.53;;;2.13;;
55186;SDS011;55457;52.002;5.464;2023-07-30T05:08:06;12.35;;;3.50;;
55186;SDS011;55457;52.002;5.464;2023-07-30T05:10:31;6.43;;;2.63;;
55186;SDS011;55457;52.002;5.464;2023-07-30T05:12:57;18.00;;;3.25;;
55186;SDS011;55457;52.002;5.464;2023-07-30T05:15:22;17.08;;;4.90;;
55186;SDS011;55457;52.002;5.464;2023-07-30T05:17:47;12.35;;;3.75;;
55186;SDS011;55457;52.002;5.464;2023-07-30T05:20:12;14.85;;;4.18;;
55186;SDS011;55457;52.002;5.464;2023-07-30T05:22:38;11.85;;;3.72;;
55186;SDS011;55457;52.002;5.464;2023-07-30T05:25:03;9.15;;;2.42;;
55186;SDS011;55457;52.002;5.464;2023-07-30T05:27:29;10.35;;;3.35;;
55186;SDS011;55457;52.002;5.464;2023-07-30T05:29:56;12.85;;;2.95;;
55186;SDS011;55457;52.002;5.464;2023-07-30T05:32:21;15.75;;;3.65;;
55186;SDS011;55457;52.002;5.464;2023-07-30T05:34:47;13.52;;;3.55;;
55186;SDS011;55457;52.002;5.464;2023-07-30T05:37:12;12.75;;;3.35;;
55186;SDS011;55457;52.002;5.464;2023-07-30T05:39:37;7.20;;;2.95;;
55186;SDS011;55457;52.002;5.464;2023-07-30T05:42:03;14.27;;;3.92;;
55186;SDS011;55457;52.002;5.464;2023-07-30T05:44:28;16.17;;;3.80;;
55186;SDS011;55457;52.002;5.464;2023-07-30T05:46:54;15.82;;;3.05;;
55186;SDS011;55457;52.002;5.464;2023-07-30T05:49:19;10.68;;;3.08;;
55186;SDS011;55457;52.002;5.464;2023-07-30T05:51:45;10.25;;;3.15;;
55186;SDS011;55457;52.002;5.464;2023-07-30T05:54:10;10.15;;;3.17;;
55186;SDS011;55457;52.002;5.464;2023-07-30T05:56:36;15.82;;;3.95;;
55186;SDS011;55457;52.002;5.464;2023-07-30T05:59:01;10.77;;;3.63;;
55186;SDS011;55457;52.002;5.464;2023-07-30T06:01:26;14.90;;;3.35;;
55186;SDS011;55457;52.002;5.464;2023-07-30T06:03:52;12.95;;;3.30;;
55186;SDS011;55457;52.002;5.464;2023-07-30T06:06:17;15.02;;;4.75;;
55186;SDS011;55457;52.002;5.464;2023-07-30T06:08:44;15.80;;;4.18;;
55186;SDS011;55457;52.002;5.464;2023-07-30T06:11:10;11.70;;;3.78;;
55186;SDS011;55457;52.002;5.464;2023-07-30T06:13:35;10.25;;;3.40;;
55186;SDS011;55457;52.002;5.464;2023-07-30T06:16:01;12.57;;;3.90;;
55186;SDS011;55457;52.002;5.464;2023-07-30T06:18:27;8.50;;;3.42;;
55186;SDS011;55457;52.002;5.464;2023-07-30T06:20:52;14.02;;;3.53;;
55186;SDS011;55457;52.002;5.464;2023-07-30T06:23:18;10.07;;;3.63;;
55186;SDS011;55457;52.002;5.464;2023-07-30T06:25:43;12.88;;;4.97;;
55186;SDS011;55457;52.002;5.464;2023-07-30T06:28:08;11.88;;;3.75;;
55186;SDS011;55457;52.002;5.464;2023-07-30T06:30:34;13.20;;;4.22;;
55186;SDS011;55457;52.002;5.464;2023-07-30T06:33:01;10.50;;;3.55;;
55186;SDS011;55457;52.002;5.464;2023-07-30T06:35:27;14.60;;;4.82;;
55186;SDS011;55457;52.002;5.464;2023-07-30T06:37:52;14.65;;;4.55;;
55186;SDS011;55457;52.002;5.464;2023-07-30T06:40:17;18.35;;;5.00;;
55186;SDS011;55457;52.002;5.464;2023-07-30T06:42:43;12.77;;;4.25;;
55186;SDS011;55457;52.002;5.464;2023-07-30T06:45:08;18.90;;;4.13;;
55186;SDS011;55457;52.002;5.464;2023-07-30T06:47:33;14.88;;;3.83;;
55186;SDS011;55457;52.002;5.464;2023-07-30T06:49:59;13.85;;;4.55;;
55186;SDS011;55457;52.002;5.464;2023-07-30T06:52:24;15.10;;;4.00;;
55186;SDS011;55457;52.002;5.464;2023-07-30T06:54:50;16.80;;;4.82;;
55186;SDS011;55457;52.002;5.464;2023-07-30T06:57:15;9.20;;;3.00;;
55186;SDS011;55457;52.002;5.464;2023-07-30T06:59:41;12.75;;;4.38;;
55186;SDS011;55457;52.002;5.464;2023-07-30T07:02:06;12.10;;;4.38;;
55186;SDS011;55457;52.002;5.464;2023-07-30T07:04:31;12.18;;;4.43;;
55186;SDS011;55457;52.002;5.464;2023-07-30T07:06:57;8.60;;;3.13;;
55186;SDS011;55457;52.002;5.464;2023-07-30T07:09:22;11.75;;;3.63;;
55186;SDS011;55457;52.002;5.464;2023-07-30T07:11:47;15.75;;;4.10;;
55186;SDS011;55457;52.002;5.464;2023-07-30T07:14:13;11.95;;;4.05;;
55186;SDS011;55457;52.002;5.464;2023-07-30T07:16:38;12.27;;;3.70;;
55186;SDS011;55457;52.002;5.464;2023-07-30T07:19:03;16.48;;;3.90;;
55186;SDS011;55457;52.002;5.464;2023-07-30T07:21:29;16.75;;;4.72;;
55186;SDS011;55457;52.002;5.464;2023-07-30T07:23:54;9.63;;;3.58;;
55186;SDS011;55457;52.002;5.464;2023-07-30T07:26:20;19.27;;;4.30;;
55186;SDS011;55457;52.002;5.464;2023-07-30T07:28:46;15.35;;;4.03;;
55186;SDS011;55457;52.002;5.464;2023-07-30T07:31:11;12.55;;;3.80;;
55186;SDS011;55457;52.002;5.464;2023-07-30T07:33:36;12.25;;;3.75;;
55186;SDS011;55457;52.002;5.464;2023-07-30T07:36:05;10.52;;;3.15;;
55186;SDS011;55457;52.002;5.464;2023-07-30T07:38:32;13.15;;;2.90;;
55186;SDS011;55457;52.002;5.464;2023-07-30T07:40:58;13.52;;;3.75;;
55186;SDS011;55457;52.002;5.464;2023-07-30T07:43:24;11.60;;;3.50;;
55186;SDS011;55457;52.002;5.464;2023-07-30T07:45:49;16.02;;;3.78;;
55186;SDS011;55457;52.002;5.464;2023-07-30T07:48:14;12.00;;;3.72;;
55186;SDS011;55457;52.002;5.464;2023-07-30T07:50:40;12.15;;;3.42;;
55186;SDS011;55457;52.002;5.464;2023-07-30T07:53:05;15.10;;;4.85;;
55186;SDS011;55457;52.002;5.464;2023-07-30T07:55:30;13.70;;;3.85;;
55186;SDS011;55457;52.002;5.464;2023-07-30T07:57:56;21.40;;;3.80;;
55186;SDS011;55457;52.002;5.464;2023-07-30T08:00:21;12.93;;;3.80;;
55186;SDS011;55457;52.002;5.464;2023-07-30T08:02:47;14.00;;;3.90;;
55186;SDS011;55457;52.002;5.464;2023-07-30T08:05:13;19.67;;;4.80;;
55186;SDS011;55457;52.002;5.464;2023-07-30T08:07:38;19.10;;;4.70;;
55186;SDS011;55457;52.002;5.464;2023-07-30T08:10:04;14.30;;;4.28;;
55186;SDS011;55457;52.002;5.464;2023-07-30T08:12:31;21.73;;;3.33;;
55186;SDS011;55457;52.002;5.464;2023-07-30T08:14:57;10.18;;;3.83;;
55186;SDS011;55457;52.002;5.464;2023-07-30T08:17:23;13.05;;;3.85;;
55186;SDS011;55457;52.002;5.464;2023-07-30T08:19:49;8.65;;;3.13;;
55186;SDS011;55457;52.002;5.464;2023-07-30T08:22:14;13.07;;;3.85;;
55186;SDS011;55457;52.002;5.464;2023-07-30T08:24:40;20.40;;;4.20;;
55186;SDS011;55457;52.002;5.464;2023-07-30T08:27:05;14.95;;;3.50;;
55186;SDS011;55457;52.002;5.464;2023-07-30T08:29:31;12.63;;;3.22;;
55186;SDS011;55457;52.002;5.464;2023-07-30T08:31:56;11.52;;;2.63;;
55186;SDS011;55457;52.002;5.464;2023-07-30T08:34:22;14.40;;;2.92;;
55186;SDS011;55457;52.002;5.464;2023-07-30T08:36:48;10.23;;;2.65;;
55186;SDS011;55457;52.002;5.464;2023-07-30T08:39:13;9.43;;;2.85;;
55186;SDS011;55457;52.002;5.464;2023-07-30T08:41:39;9.95;;;2.53;;
55186;SDS011;55457;52.002;5.464;2023-07-30T08:44:04;8.73;;;2.30;;
55186;SDS011;55457;52.002;5.464;2023-07-30T08:46:30;11.20;;;2.50;;
55186;SDS011;55457;52.002;5.464;2023-07-30T08:48:55;10.75;;;2.67;;
55186;SDS011;55457;52.002;5.464;2023-07-30T08:51:22;11.65;;;2.63;;
55186;SDS011;55457;52.002;5.464;2023-07-30T08:53:49;13.18;;;3.42;;
55186;SDS011;55457;52.002;5.464;2023-07-30T08:56:16;13.50;;;2.50;;
55186;SDS011;55457;52.002;5.464;2023-07-30T08:58:42;8.75;;;2.60;;
55186;SDS011;55457;52.002;5.464;2023-07-30T09:01:09;6.85;;;2.40;;
55186;SDS011;55457;52.002;5.464;2023-07-30T09:03:39;9.30;;;2.28;;
55186;SDS011;55457;52.002;5.464;2023-07-30T09:06:06;9.88;;;2.30;;
55186;SDS011;55457;52.002;5.464;2023-07-30T09:08:32;4.85;;;1.65;;
55186;SDS011;55457;52.002;5.464;2023-07-30T09:11:07;5.70;;;2.10;;
55186;SDS011;55457;52.002;5.464;2023-07-30T09:13:40;4.18;;;2.58;;
55186;SDS011;55457;52.002;5.464;2023-07-30T09:16:09;7.82;;;2.22;;
55186;SDS011;55457;52.002;5.464;2023-07-30T09:18:42;9.38;;;2.20;;
55186;SDS011;55457;52.002;5.464;2023-07-30T09:21:10;11.88;;;3.13;;
55186;SDS011;55457;52.002;5.464;2023-07-30T09:23:39;10.70;;;2.22;;
55186;SDS011;55457;52.002;5.464;2023-07-30T09:26:06;5.82;;;1.90;;
55186;SDS011;55457;52.002;5.464;2023-07-30T09:28:31;7.63;;;2.20;;
55186;SDS011;55457;52.002;5.464;2023-07-30T09:31:00;9.45;;;2.78;;
55186;SDS011;55457;52.002;5.464;2023-07-30T09:33:27;12.02;;;2.45;;
55186;SDS011;55457;52.002;5.464;2023-07-30T09:35:52;9.23;;;2.08;;
55186;SDS011;55457;52.002;5.464;2023-07-30T09:38:18;7.30;;;2.08;;
55186;SDS011;55457;52.002;5.464;2023-07-30T09:40:45;8.07;;;2.28;;
55186;SDS011;55457;52.002;5.464;2023-07-30T09:43:14;5.93;;;2.58;;
55186;SDS011;55457;52.002;5.464;2023-07-30T09:45:39;10.57;;;2.17;;
55186;SDS011;55457;52.002;5.464;2023-07-30T09:48:05;5.97;;;1.90;;
55186;SDS011;55457;52.002;5.464;2023-07-30T09:50:33;8.18;;;2.53;;
55186;SDS011;55457;52.002;5.464;2023-07-30T09:52:58;6.78;;;2.03;;
55186;SDS011;55457;52.002;5.464;2023-07-30T09:55:26;8.13;;;2.50;;
55186;SDS011;55457;52.002;5.464;2023-07-30T09:57:52;3.25;;;1.40;;
55186;SDS011;55457;52.002;5.464;2023-07-30T10:00:17;13.20;;;3.35;;
55186;SDS011;55457;52.002;5.464;2023-07-30T10:02:45;8.38;;;1.85;;
55186;SDS011;55457;52.002;5.464;2023-07-30T10:05:14;12.45;;;2.25;;
55186;SDS011;55457;52.002;5.464;2023-07-30T10:07:42;9.70;;;2.00;;
55186;SDS011;55457;52.002;5.464;2023-07-30T10:10:14;10.20;;;2.67;;
55186;SDS011;55457;52.002;5.464;2023-07-30T10:12:39;15.48;;;2.08;;
55186;SDS011;55457;52.002;5.464;2023-07-30T10:15:07;12.30;;;3.10;;
55186;SDS011;55457;52.002;5.464;2023-07-30T10:17:33;5.43;;;1.95;;
55186;SDS011;55457;52.002;5.464;2023-07-30T10:20:17;10.10;;;1.70;;
55186;SDS011;55457;52.002;5.464;2023-07-30T10:22:52;8.20;;;2.05;;
55186;SDS011;55457;52.002;5.464;2023-07-30T10:25:20;6.53;;;1.58;;
55186;SDS011;55457;52.002;5.464;2023-07-30T10:27:48;9.82;;;1.50;;
55186;SDS011;55457;52.002;5.464;2023-07-30T10:30:16;4.97;;;1.50;;
55186;SDS011;55457;52.002;5.464;2023-07-30T10:38:22;8.75;;;1.48;;
55186;SDS011;55457;52.002;5.464;2023-07-30T10:41:06;6.78;;;1.20;;
55186;SDS011;55457;52.002;5.464;2023-07-30T10:43:34;8.15;;;1.52;;
55186;SDS011;55457;52.002;5.464;2023-07-30T10:46:01;7.10;;;1.17;;
55186;SDS011;55457;52.002;5.464;2023-07-30T10:48:33;3.88;;;1.13;;
55186;SDS011;55457;52.002;5.464;2023-07-30T10:51:01;3.42;;;1.20;;
55186;SDS011;55457;52.002;5.464;2023-07-30T10:53:28;6.25;;;1.17;;
55186;SDS011;55457;52.002;5.464;2023-07-30T10:55:53;6.50;;;1.70;;
55186;SDS011;55457;52.002;5.464;2023-07-30T10:58:23;4.20;;;0.95;;
55186;SDS011;55457;52.002;5.464;2023-07-30T11:00:49;9.63;;;1.80;;
55186;SDS011;55457;52.002;5.464;2023-07-30T11:03:15;5.88;;;1.40;;
55186;SDS011;55457;52.002;5.464;2023-07-30T11:05:40;6.20;;;1.30;;
55186;SDS011;55457;52.002;5.464;2023-07-30T11:08:05;5.20;;;1.10;;
55186;SDS011;55457;52.002;5.464;2023-07-30T11:10:31;4.30;;;1.15;;
55186;SDS011;55457;52.002;5.464;2023-07-30T11:12:57;4.78;;;1.40;;
55186;SDS011;55457;52.002;5.464;2023-07-30T11:15:22;5.00;;;0.93;;
55186;SDS011;55457;52.002;5.464;2023-07-30T11:17:48;3.72;;;1.00;;
55186;SDS011;55457;52.002;5.464;2023-07-30T11:20:26;3.40;;;0.88;;
55186;SDS011;55457;52.002;5.464;2023-07-30T11:22:52;4.53;;;1.10;;
55186;SDS011;55457;52.002;5.464;2023-07-30T11:25:18;4.47;;;0.90;;
55186;SDS011;55457;52.002;5.464;2023-07-30T11:27:45;2.67;;;0.80;;
55186;SDS011;55457;52.002;5.464;2023-07-30T11:30:14;5.43;;;1.30;;
55186;SDS011;55457;52.002;5.464;2023-07-30T11:32:39;3.78;;;0.93;;
55186;SDS011;55457;52.002;5.464;2023-07-30T11:35:07;4.50;;;1.55;;
55186;SDS011;55457;52.002;5.464;2023-07-30T11:37:33;4.50;;;1.38;;
55186;SDS011;55457;52.002;5.464;2023-07-30T11:39:59;5.93;;;1.02;;
55186;SDS011;55457;52.002;5.464;2023-07-30T11:42:25;3.75;;;1.08;;
55186;SDS011;55457;52.002;5.464;2023-07-30T11:44:54;3.80;;;0.75;;
55186;SDS011;55457;52.002;5.464;2023-07-30T11:47:20;4.93;;;1.10;;
55186;SDS011;55457;52.002;5.464;2023-07-30T11:49:56;2.97;;;0.82;;
55186;SDS011;55457;52.002;5.464;2023-07-30T11:52:22;3.85;;;1.02;;
55186;SDS011;55457;52.002;5.464;2023-07-30T11:54:47;5.10;;;1.35;;
55186;SDS011;55457;52.002;5.464;2023-07-30T11:57:13;2.58;;;1.00;;
55186;SDS011;55457;52.002;5.464;2023-07-30T11:59:39;4.75;;;0.90;;
55186;SDS011;55457;52.002;5.464;2023-07-30T12:02:07;2.45;;;0.70;;
55186;SDS011;55457;52.002;5.464;2023-07-30T12:04:44;1.90;;;0.68;;
55186;SDS011;55457;52.002;5.464;2023-07-30T12:07:10;5.13;;;1.10;;
55186;SDS011;55457;52.002;5.464;2023-07-30T12:09:35;3.72;;;0.98;;
55186;SDS011;55457;52.002;5.464;2023-07-30T12:12:01;4.43;;;0.88;;
55186;SDS011;55457;52.002;5.464;2023-07-30T12:14:27;3.13;;;1.17;;
55186;SDS011;55457;52.002;5.464;2023-07-30T12:17:01;7.93;;;0.73;;
55186;SDS011;55457;52.002;5.464;2023-07-30T12:19:27;3.03;;;1.48;;
55186;SDS011;55457;52.002;5.464;2023-07-30T12:21:52;5.90;;;1.05;;
55186;SDS011;55457;52.002;5.464;2023-07-30T12:24:18;4.90;;;1.02;;
55186;SDS011;55457;52.002;5.464;2023-07-30T12:26:43;2.15;;;0.55;;
55186;SDS011;55457;52.002;5.464;2023-07-30T12:29:09;6.32;;;0.90;;
55186;SDS011;55457;52.002;5.464;2023-07-30T12:31:34;2.30;;;0.90;;
55186;SDS011;55457;52.002;5.464;2023-07-30T12:33:59;1.27;;;0.52;;
55186;SDS011;55457;52.002;5.464;2023-07-30T12:36:25;2.30;;;0.70;;
55186;SDS011;55457;52.002;5.464;2023-07-30T12:38:51;4.22;;;0.85;;
55186;SDS011;55457;52.002;5.464;2023-07-30T12:41:19;3.90;;;0.98;;
55186;SDS011;55457;52.002;5.464;2023-07-30T12:43:50;5.28;;;0.82;;
55186;SDS011;55457;52.002;5.464;2023-07-30T12:46:16;2.90;;;0.60;;
55186;SDS011;55457;52.002;5.464;2023-07-30T12:48:42;2.85;;;0.50;;
55186;SDS011;55457;52.002;5.464;2023-07-30T12:51:07;8.88;;;1.30;;
55186;SDS011;55457;52.002;5.464;2023-07-30T12:53:32;3.95;;;1.02;;
55186;SDS011;55457;52.002;5.464;2023-07-30T12:55:58;4.03;;;1.38;;
55186;SDS011;55457;52.002;5.464;2023-07-30T12:58:23;5.35;;;0.70;;
55186;SDS011;55457;52.002;5.464;2023-07-30T13:00:48;5.70;;;0.80;;
55186;SDS011;55457;52.002;5.464;2023-07-30T13:03:14;5.30;;;0.90;;
55186;SDS011;55457;52.002;5.464;2023-07-30T13:05:39;5.18;;;0.93;;
55186;SDS011;55457;52.002;5.464;2023-07-30T13:08:04;6.45;;;1.02;;
55186;SDS011;55457;52.002;5.464;2023-07-30T13:10:30;8.05;;;1.80;;
55186;SDS011;55457;52.002;5.464;2023-07-30T13:12:55;5.70;;;1.05;;
55186;SDS011;55457;52.002;5.464;2023-07-30T13:15:20;6.80;;;1.27;;
55186;SDS011;55457;52.002;5.464;2023-07-30T13:17:46;2.60;;;0.80;;
55186;SDS011;55457;52.002;5.464;2023-07-30T13:20:11;0.90;;;0.70;;
55186;SDS011;55457;52.002;5.464;2023-07-30T13:22:36;5.03;;;1.08;;
55186;SDS011;55457;52.002;5.464;2023-07-30T13:25:02;4.60;;;0.82;;
55186;SDS011;55457;52.002;5.464;2023-07-30T13:27:28;5.95;;;0.98;;
55186;SDS011;55457;52.002;5.464;2023-07-30T13:29:53;5.88;;;0.70;;
55186;SDS011;55457;52.002;5.464;2023-07-30T13:32:18;3.50;;;1.10;;
55186;SDS011;55457;52.002;5.464;2023-07-30T13:34:44;2.17;;;0.73;;
55186;SDS011;55457;52.002;5.464;2023-07-30T13:37:09;2.28;;;1.08;;
55186;SDS011;55457;52.002;5.464;2023-07-30T13:39:34;6.40;;;1.15;;
55186;SDS011;55457;52.002;5.464;2023-07-30T13:42:00;2.80;;;0.70;;
55186;SDS011;55457;52.002;5.464;2023-07-30T13:44:25;2.17;;;0.65;;
55186;SDS011;55457;52.002;5.464;2023-07-30T13:46:50;2.65;;;0.50;;
55186;SDS011;55457;52.002;5.464;2023-07-30T13:49:16;3.35;;;0.40;;
55186;SDS011;55457;52.002;5.464;2023-07-30T13:51:42;2.92;;;0.55;;
55186;SDS011;55457;52.002;5.464;2023-07-30T13:54:07;5.45;;;0.70;;
55186;SDS011;55457;52.002;5.464;2023-07-30T13:56:33;2.53;;;0.90;;
55186;SDS011;55457;52.002;5.464;2023-07-30T13:58:58;3.33;;;0.60;;
55186;SDS011;55457;52.002;5.464;2023-07-30T14:01:25;1.85;;;0.60;;
55186;SDS011;55457;52.002;5.464;2023-07-30T14:03:50;2.88;;;0.50;;
55186;SDS011;55457;52.002;5.464;2023-07-30T14:06:16;5.75;;;0.90;;
55186;SDS011;55457;52.002;5.464;2023-07-30T14:08:42;5.15;;;0.75;;
55186;SDS011;55457;52.002;5.464;2023-07-30T14:11:07;4.75;;;0.98;;
55186;SDS011;55457;52.002;5.464;2023-07-30T14:13:33;3.70;;;0.88;;
55186;SDS011;55457;52.002;5.464;2023-07-30T14:15:58;2.90;;;0.98;;
55186;SDS011;55457;52.002;5.464;2023-07-30T14:18:24;2.42;;;0.77;;
55186;SDS011;55457;52.002;5.464;2023-07-30T14:20:50;2.38;;;0.63;;
55186;SDS011;55457;52.002;5.464;2023-07-30T14:23:15;2.50;;;0.95;;
55186;SDS011;55457;52.002;5.464;2023-07-30T14:25:41;1.00;;;0.50;;
55186;SDS011;55457;52.002;5.464;2023-07-30T14:28:06;3.40;;;0.73;;
55186;SDS011;55457;52.002;5.464;2023-07-30T14:30:32;2.05;;;0.73;;
55186;SDS011;55457;52.002;5.464;2023-07-30T14:32:57;2.60;;;0.90;;
55186;SDS011;55457;52.002;5.464;2023-07-30T14:35:23;3.05;;;0.52;;
55186;SDS011;55457;52.002;5.464;2023-07-30T14:37:48;4.78;;;0.90;;
55186;SDS011;55457;52.002;5.464;2023-07-30T14:40:16;2.65;;;0.85;;
55186;SDS011;55457;52.002;5.464;2023-07-30T14:42:42;4.00;;;0.93;;